Flight Track Log - Related Links

Times and Time Zones

All times are in EDT time to prevent confusion due to time zone crossing. See the N830QS flight status page for this flight to view local times or setup timezone preferences in your user account.

Time Position Orientation Groundspeed Altitude Reporting Facility
EDT Latitude Longitude Course Direction KTS MPH feet Rate Location/Type
Mon 01:32:19 PM 40.7711 -111.9631 249° West 153 176 5,300  Level Salt Lake Center
Mon 01:33:19 PM 40.7517 -112.0292 249° West 202 232 8,900 2,735 Climbing Salt Lake Center
Mon 01:34:46 PM 40.8169 -112.1111 316° Northwest 315 362 12,000 2,456 Climbing Salt Lake Center
Mon 01:35:48 PM 40.9056 -112.1386 347° North 325 374 15,000 2,758 Climbing Salt Lake Center
Mon 01:36:50 PM 40.9986 -112.1653 348° North 339 390 17,700 2,710 Climbing Salt Lake Center
Mon 01:37:52 PM 41.0947 -112.1944 347° North 347 399 20,600 2,419 Climbing Salt Lake Center
Mon 01:38:54 PM 41.1936 -112.2233 348° North 360 414 22,700 1,984 Climbing Salt Lake Center
Mon 01:39:56 PM 41.2939 -112.2528 348° North 365 420 24,700 1,887 Climbing Salt Lake Center
Mon 01:40:58 PM 41.4161 -112.2892 347° North 374 430 26,600 1,839 Climbing Salt Lake Center
Mon 01:42:00 PM 41.5197 -112.3206 347° North 381 438 28,500 1,645 Climbing Salt Lake Center
Mon 01:43:02 PM 41.6206 -112.3500 348° North 372 428 30,000 726 Climbing Salt Lake Center
Mon 01:44:04 PM 41.7303 -112.3839 347° North 406 467 30,000  Level Salt Lake Center
Mon 01:45:06 PM 41.8431 -112.4186 347° North 413 475 30,000  Level Salt Lake Center
Mon 01:46:08 PM 41.9631 -112.4528 348° North 435 501 30,000  Level Salt Lake Center
Mon 01:47:10 PM 42.1028 -112.4964 347° North 431 496 30,000  Level Salt Lake Center
Mon 01:48:12 PM 42.2203 -112.5328 347° North 433 498 30,000  Level Salt Lake Center
Mon 01:49:14 PM 42.3394 -112.5678 348° North 438 504 30,000  Level Salt Lake Center
Mon 01:50:16 PM 42.4578 -112.6056 347° North 437 503 30,000  Level Salt Lake Center
Mon 01:51:18 PM 42.5758 -112.6408 348° North 435 501 30,000  Level Salt Lake Center
Mon 01:52:20 PM 42.7000 -112.6792 347° North 437 503 30,000  Level Salt Lake Center
Mon 01:53:22 PM 42.8336 -112.7203 347° North 439 505 30,000  Level Salt Lake Center
Mon 01:54:24 PM 42.9475 -112.7569 347° North 439 505 30,000  Level Salt Lake Center
Mon 01:55:26 PM 43.0794 -112.7978 347° North 436 502 30,000  Level Salt Lake Center
Mon 01:56:28 PM 43.1939 -112.8344 347° North 438 504 30,000  Level Salt Lake Center
Mon 01:57:30 PM 43.3269 -112.8756 347° North 438 504 30,000  Level Salt Lake Center
Mon 01:58:32 PM 43.4408 -112.9117 347° North 438 504 30,000  Level Salt Lake Center
Mon 01:59:34 PM 43.5742 -112.9550 347° North 441 507 30,000  Level Salt Lake Center
Mon 02:00:36 PM 43.6894 -112.9914 347° North 442 509 30,000  Level Salt Lake Center
Mon 02:01:38 PM 43.8025 -113.0278 347° North 438 504 30,000  Level Salt Lake Center
Mon 02:02:40 PM 43.9358 -113.0717 347° North 438 504 30,000  Level Salt Lake Center
Mon 02:03:42 PM 44.0503 -113.1094 347° North 440 506 30,000  Level Salt Lake Center
Mon 02:04:44 PM 44.1858 -113.1519 347° North 445 512 30,000  Level Salt Lake Center
Mon 02:05:46 PM 44.2975 -113.1886 347° North 435 501 30,000  Level Salt Lake Center
Mon 02:06:49 PM 44.4317 -113.2342 346° North 441 507 30,000  Level Salt Lake Center
Mon 02:07:51 PM 44.5464 -113.2711 347° North 441 507 30,000  Level Salt Lake Center
Mon 02:08:53 PM 44.6789 -113.3158 347° North 439 505 30,000  Level Salt Lake Center
Mon 02:09:55 PM 44.7944 -113.3536 347° North 443 510 30,000  Level Salt Lake Center
Mon 02:10:57 PM 44.9092 -113.3928 346° North 442 509 30,000  Level Salt Lake Center
Mon 02:11:59 PM 45.0425 -113.4369 347° North 440 506 30,000  Level Salt Lake Center
Mon 02:13:01 PM 45.1586 -113.4761 347° North 446 513 30,000  Level Salt Lake Center
Mon 02:14:03 PM 45.2931 -113.5211 347° North 445 512 30,000  Level Salt Lake Center
Mon 02:15:05 PM 45.4175 -113.5642 346° North 443 510 30,000 -629 Level Salt Lake Center
Mon 02:16:07 PM 45.5369 -113.6064 346° North 442 509 28,700 -1,306 Descending Salt Lake Center
Mon 02:17:09 PM 45.6653 -113.6294 353° North 437 503 27,300 -1,113 Descending Salt Lake Center
Mon 02:18:11 PM 45.7839 -113.6472 354° North 431 496 26,400 -1,161 Descending Salt Lake Center
Mon 02:19:13 PM 45.9042 -113.6697 353° North 434 499 24,900 -2,226 Descending Salt Lake Center
Mon 02:20:15 PM 46.0136 -113.7006 349° North 406 467 21,800 -2,758 Descending Salt Lake Center
Mon 02:21:17 PM 46.1169 -113.7433 344° North 388 447 19,200 -2,903 Descending Salt Lake Center
Mon 02:22:19 PM 46.2344 -113.7944 343° North 381 438 15,800 -2,806 Descending Salt Lake Center
Mon 02:23:21 PM 46.3289 -113.8347 344° North 330 380 13,400 -1,790 Descending Salt Lake Center
Mon 02:24:23 PM 46.4108 -113.8697 344° North 310 357 12,100 -1,306 Descending Salt Lake Center
Mon 02:25:25 PM 46.4986 -113.9072 344° North 307 353 10,700 -1,645 Descending Salt Lake Center
Mon 02:26:27 PM 46.5753 -113.9422 343° North 292 336 8,700 -1,113 Descending Salt Lake Center
Mon 02:27:29 PM 46.6444 -113.9708 344° North 261 300 8,400 -581 Descending Salt Lake Center
Mon 02:28:31 PM 46.7111 -113.9942 347° North 230 265 7,500 -774 Descending Salt Lake Center
Mon 02:29:33 PM 46.7681 -114.0100 349° North 210 242 6,800 -823 Descending Salt Lake Center
Mon 02:30:35 PM 46.8336 -114.0214 353° North 220 253 5,800 -1,210 Descending Salt Lake Center
Mon 02:31:37 PM 46.8736 -114.0247 357° North 147 169 4,300 -1,113 Descending Salt Lake Center
Mon 02:32:39 PM 46.8994 -114.0636 314° West 126 145 3,500 -774 Descending Salt Lake Center

Login

Don't have an account? Register now (free) for customized features, flight alerts, and more!